Time;durP1;ratioP1;P1;durP2;ratioP2;P2;SDS_P1;SDS_P2;PMS_P1;PMS_P2;Temp;Humidity;BMP_temperature;BMP_pressure;BME280_temperature;BME280_humidity;BME280_pressure;Samples;Min_cycle;Max_cycle;Signal;HPM_P1;HPM_P2
2022/09/30 00:00:42;;;;;;;1.75;0.75;;;;;;;;;;8323698;28;20107;-60
2022/09/30 00:04:42;;;;;;;0.65;0.60;;;;;;;;;;8322075;28;20043;-60
2022/09/30 00:08:42;;;;;;;0.70;0.70;;;;;;;;;;8323543;28;20024;-58
2022/09/30 00:12:42;;;;;;;1.27;0.70;;;;;;;;;;8322259;28;20449;-59
2022/09/30 00:16:43;;;;;;;0.60;0.60;;;;;;;;;;8324785;28;20033;-60
2022/09/30 00:20:43;;;;;;;0.77;0.70;;;;;;;;;;8325375;28;20020;-58
2022/09/30 00:24:45;;;;;;;0.50;0.50;;;;;;;;;;8324063;28;20020;-60
2022/09/30 00:28:49;;;;;;;0.52;0.52;;;;;;;;;;8322607;28;20033;-58
2022/09/30 00:32:50;;;;;;;1.67;0.65;;;;;;;;;;8320948;28;20135;-58
2022/09/30 00:36:51;;;;;;;0.70;0.70;;;;;;;;;;8324122;28;20032;-58
2022/09/30 00:40:52;;;;;;;0.60;0.60;;;;;;;;;;8323851;28;20026;-58
2022/09/30 00:44:53;;;;;;;1.27;0.70;;;;;;;;;;8324096;28;20062;-60
2022/09/30 00:48:55;;;;;;;1.08;0.70;;;;;;;;;;8320390;28;20052;-58
2022/09/30 00:53:06;;;;;;;0.60;0.60;;;;;;;;;;8322717;28;20033;-59
2022/09/30 00:57:06;;;;;;;2.00;0.60;;;;;;;;;;8324061;28;20021;-60
2022/09/30 01:01:08;;;;;;;1.00;0.60;;;;;;;;;;8322359;28;20029;-58
2022/09/30 01:05:10;;;;;;;6.13;0.63;;;;;;;;;;8321451;28;20029;-58
2022/09/30 01:09:10;;;;;;;0.50;0.50;;;;;;;;;;8321594;28;20033;-58
2022/09/30 01:13:12;;;;;;;0.50;0.50;;;;;;;;;;8322206;28;20080;-58
2022/09/30 01:17:27;;;;;;;0.57;0.55;;;;;;;;;;8322413;28;20049;-58
2022/09/30 01:21:47;;;;;;;0.52;0.52;;;;;;;;;;8327230;28;20537;-59
2022/09/30 01:26:02;;;;;;;0.50;0.50;;;;;;;;;;8327694;28;20039;-58
2022/09/30 01:30:02;;;;;;;0.63;0.50;;;;;;;;;;8329708;28;20530;-60
2022/09/30 01:34:10;;;;;;;0.63;0.50;;;;;;;;;;8328565;28;20024;-60
2022/09/30 01:38:24;;;;;;;0.70;0.70;;;;;;;;;;8328661;28;20021;-59
2022/09/30 01:42:30;;;;;;;1.00;0.68;;;;;;;;;;8323915;28;20029;-58
2022/09/30 01:46:37;;;;;;;1.00;0.60;;;;;;;;;;8328711;28;20460;-58
2022/09/30 01:50:56;;;;;;;1.52;0.60;;;;;;;;;;8328753;28;20025;-59
2022/09/30 01:54:56;;;;;;;0.50;0.50;;;;;;;;;;8327053;28;20025;-59
2022/09/30 01:58:59;;;;;;;0.50;0.50;;;;;;;;;;8327573;28;20031;-58
2022/09/30 02:03:06;;;;;;;0.70;0.70;;;;;;;;;;8327206;28;20672;-58
2022/09/30 02:07:14;;;;;;;1.30;0.60;;;;;;;;;;8325368;28;20060;-57
2022/09/30 02:11:17;;;;;;;1.75;0.65;;;;;;;;;;8326500;28;20036;-57
2022/09/30 02:15:22;;;;;;;0.75;0.75;;;;;;;;;;8325905;28;20024;-57
2022/09/30 02:19:28;;;;;;;0.82;0.82;;;;;;;;;;8325224;28;20039;-57
2022/09/30 02:23:31;;;;;;;0.68;0.65;;;;;;;;;;8325127;28;20021;-58
2022/09/30 02:27:36;;;;;;;0.80;0.80;;;;;;;;;;8325138;28;20091;-58
2022/09/30 02:31:39;;;;;;;0.80;0.80;;;;;;;;;;8325444;28;20038;-57
2022/09/30 02:35:43;;;;;;;0.90;0.60;;;;;;;;;;8324436;28;20029;-57
2022/09/30 02:39:56;;;;;;;0.80;0.80;;;;;;;;;;8326461;28;20059;-59
2022/09/30 02:43:57;;;;;;;2.50;1.17;;;;;;;;;;8325250;28;20045;-59
2022/09/30 02:48:13;;;;;;;0.70;0.70;;;;;;;;;;8325528;28;20106;-57
2022/09/30 02:52:14;;;;;;;4.20;0.80;;;;;;;;;;8324173;28;20020;-58
2022/09/30 02:56:18;;;;;;;0.80;0.70;;;;;;;;;;8328991;28;20036;-60
2022/09/30 03:00:18;;;;;;;0.70;0.70;;;;;;;;;;8330885;28;20032;-58
2022/09/30 03:04:21;;;;;;;1.17;0.70;;;;;;;;;;8328344;28;20471;-58
2022/09/30 03:08:22;;;;;;;1.10;0.80;;;;;;;;;;8329755;28;20305;-59
2022/09/30 03:12:43;;;;;;;3.10;0.80;;;;;;;;;;8324222;28;20131;-58
2022/09/30 03:16:57;;;;;;;3.08;1.00;;;;;;;;;;8325114;28;20048;-59
2022/09/30 03:21:26;;;;;;;1.20;1.10;;;;;;;;;;8325533;28;20033;-59
2022/09/30 03:25:44;;;;;;;1.52;0.90;;;;;;;;;;8260491;28;20037;-59
2022/09/30 03:30:15;;;;;;;2.88;1.33;;;;;;;;;;8325221;28;20031;-58
2022/09/30 03:34:26;;;;;;;0.90;0.90;;;;;;;;;;8275658;28;20539;-58
2022/09/30 03:38:27;;;;;;;1.00;0.90;;;;;;;;;;8289267;28;20030;-58
2022/09/30 03:42:32;;;;;;;1.35;0.90;;;;;;;;;;8291700;28;20076;-58
2022/09/30 03:46:34;;;;;;;0.80;0.80;;;;;;;;;;8288715;28;20156;-58
2022/09/30 03:50:35;;;;;;;0.70;0.70;;;;;;;;;;8289371;28;20022;-59
2022/09/30 03:54:50;;;;;;;0.70;0.70;;;;;;;;;;8289853;28;20129;-59
2022/09/30 03:58:51;;;;;;;5.93;0.80;;;;;;;;;;8289523;28;20022;-57
2022/09/30 04:02:51;;;;;;;2.05;0.90;;;;;;;;;;8288015;28;20052;-59
2022/09/30 04:06:51;;;;;;;0.93;0.70;;;;;;;;;;8290031;28;20029;-58
2022/09/30 04:10:51;;;;;;;2.97;0.90;;;;;;;;;;8290874;28;20264;-59
2022/09/30 04:14:52;;;;;;;0.87;0.80;;;;;;;;;;8292474;28;20022;-58
2022/09/30 04:18:52;;;;;;;0.70;0.70;;;;;;;;;;8291262;28;20299;-57
2022/09/30 04:22:52;;;;;;;1.00;0.80;;;;;;;;;;8290510;28;20133;-58
2022/09/30 04:26:52;;;;;;;0.80;0.80;;;;;;;;;;8290590;28;20111;-58
2022/09/30 04:30:52;;;;;;;0.93;0.80;;;;;;;;;;8288216;28;20039;-59
2022/09/30 04:34:54;;;;;;;0.93;0.90;;;;;;;;;;8286848;28;20068;-58
2022/09/30 04:38:54;;;;;;;2.10;0.90;;;;;;;;;;8288765;28;20620;-57
2022/09/30 04:42:57;;;;;;;0.90;0.90;;;;;;;;;;8290180;28;20442;-59
2022/09/30 04:46:59;;;;;;;1.17;1.08;;;;;;;;;;8288688;28;20045;-58
2022/09/30 04:50:59;;;;;;;1.27;1.10;;;;;;;;;;8286788;28;20021;-57
2022/09/30 04:55:00;;;;;;;2.23;1.00;;;;;;;;;;8289126;28;20061;-58
2022/09/30 04:59:00;;;;;;;1.10;0.90;;;;;;;;;;8299717;28;20275;-57
2022/09/30 05:03:00;;;;;;;1.10;0.70;;;;;;;;;;8295524;28;20123;-57
2022/09/30 05:07:02;;;;;;;2.03;0.70;;;;;;;;;;8296393;28;20017;-59
2022/09/30 05:11:04;;;;;;;1.10;1.00;;;;;;;;;;8298530;28;20036;-59
2022/09/30 05:15:04;;;;;;;0.95;0.85;;;;;;;;;;8297006;28;20263;-57
2022/09/30 05:19:04;;;;;;;0.75;0.60;;;;;;;;;;8295218;28;20025;-58
2022/09/30 05:23:05;;;;;;;1.13;0.88;;;;;;;;;;8298570;28;20033;-59
2022/09/30 05:27:06;;;;;;;1.25;0.70;;;;;;;;;;8292739;28;20524;-58
2022/09/30 05:31:06;;;;;;;1.48;0.90;;;;;;;;;;8293648;28;20033;-59
2022/09/30 05:35:06;;;;;;;2.70;0.82;;;;;;;;;;8296265;28;20068;-57
2022/09/30 05:39:07;;;;;;;1.00;0.93;;;;;;;;;;8291665;28;20487;-58
2022/09/30 05:43:08;;;;;;;2.05;1.23;;;;;;;;;;8294036;28;20505;-59
2022/09/30 05:47:10;;;;;;;1.23;0.90;;;;;;;;;;8293556;28;20032;-58
2022/09/30 05:51:11;;;;;;;1.60;0.80;;;;;;;;;;8288885;28;20036;-59
2022/09/30 05:55:12;;;;;;;2.38;1.42;;;;;;;;;;8291969;28;20032;-58
2022/09/30 05:59:12;;;;;;;2.80;1.15;;;;;;;;;;8289607;28;20029;-58
2022/09/30 06:03:12;;;;;;;0.80;0.80;;;;;;;;;;8291844;28;20072;-58
2022/09/30 06:07:13;;;;;;;0.80;0.80;;;;;;;;;;8294743;28;20068;-58
2022/09/30 06:11:14;;;;;;;3.33;1.00;;;;;;;;;;8287499;28;20136;-57
2022/09/30 06:15:15;;;;;;;1.10;0.90;;;;;;;;;;8292367;28;20761;-58
2022/09/30 06:19:15;;;;;;;1.63;0.90;;;;;;;;;;8292666;28;20094;-59
2022/09/30 06:23:15;;;;;;;1.70;0.90;;;;;;;;;;8293214;28;20276;-58
2022/09/30 06:27:15;;;;;;;2.10;1.10;;;;;;;;;;8294387;28;20026;-58
2022/09/30 06:31:16;;;;;;;3.30;1.30;;;;;;;;;;8289762;28;20280;-60
2022/09/30 06:35:16;;;;;;;3.60;1.60;;;;;;;;;;8291178;28;20025;-60
2022/09/30 06:39:16;;;;;;;1.83;1.73;;;;;;;;;;8290828;28;20175;-60
2022/09/30 06:43:16;;;;;;;1.17;1.00;;;;;;;;;;8286888;28;20090;-59
2022/09/30 06:47:17;;;;;;;2.50;1.30;;;;;;;;;;8289566;28;20296;-60
2022/09/30 06:51:19;;;;;;;3.22;1.17;;;;;;;;;;8289583;28;20051;-60
2022/09/30 06:55:19;;;;;;;3.40;1.20;;;;;;;;;;8286774;28;20033;-61
2022/09/30 06:59:20;;;;;;;3.70;2.05;;;;;;;;;;8286236;28;20421;-60
2022/09/30 07:03:23;;;;;;;4.63;1.33;;;;;;;;;;8287964;28;20567;-60
2022/09/30 07:07:23;;;;;;;2.83;1.50;;;;;;;;;;8287536;28;20508;-60
2022/09/30 07:11:23;;;;;;;8.90;2.10;;;;;;;;;;8285321;28;20475;-60
2022/09/30 07:15:23;;;;;;;10.50;2.78;;;;;;;;;;8288045;28;20797;-61
2022/09/30 07:19:24;;;;;;;3.70;2.17;;;;;;;;;;8285254;28;20036;-60
2022/09/30 07:23:27;;;;;;;4.10;2.10;;;;;;;;;;8289006;28;20147;-61
2022/09/30 07:27:28;;;;;;;6.25;1.67;;;;;;;;;;8287829;28;20033;-61
2022/09/30 07:31:28;;;;;;;5.13;1.30;;;;;;;;;;8288972;28;20038;-61
2022/09/30 07:35:29;;;;;;;3.43;1.40;;;;;;;;;;8289156;28;20013;-61
2022/09/30 07:39:30;;;;;;;2.00;1.10;;;;;;;;;;8289521;28;20291;-61
2022/09/30 07:43:39;;;;;;;1.40;1.30;;;;;;;;;;8287145;28;20033;-61
2022/09/30 07:47:39;;;;;;;3.90;1.30;;;;;;;;;;8286708;28;20037;-61
2022/09/30 07:51:40;;;;;;;1.92;1.20;;;;;;;;;;8286640;28;20473;-62
2022/09/30 07:55:40;;;;;;;2.85;1.30;;;;;;;;;;8286140;28;20322;-61
2022/09/30 07:59:41;;;;;;;2.65;1.02;;;;;;;;;;8285707;28;20463;-61
2022/09/30 08:03:43;;;;;;;2.40;1.10;;;;;;;;;;8283712;28;20044;-61
2022/09/30 08:07:44;;;;;;;2.38;1.58;;;;;;;;;;8283020;28;20024;-61
2022/09/30 08:11:44;;;;;;;4.30;1.30;;;;;;;;;;8283759;28;20025;-61
2022/09/30 08:15:44;;;;;;;2.55;1.30;;;;;;;;;;8281481;28;20059;-61
2022/09/30 08:19:44;;;;;;;2.58;1.30;;;;;;;;;;8287104;28;20028;-62
2022/09/30 08:23:44;;;;;;;3.40;1.33;;;;;;;;;;8282383;28;20441;-61
2022/09/30 08:27:45;;;;;;;3.20;1.70;;;;;;;;;;8287663;28;20481;-61
2022/09/30 08:31:45;;;;;;;4.40;1.77;;;;;;;;;;8285011;28;20710;-61
2022/09/30 08:35:45;;;;;;;3.77;1.77;;;;;;;;;;8282408;28;20020;-61
2022/09/30 08:39:47;;;;;;;6.18;1.80;;;;;;;;;;8287207;28;20039;-61
2022/09/30 08:43:56;;;;;;;12.75;2.58;;;;;;;;;;8286791;28;20081;-61
2022/09/30 08:47:59;;;;;;;7.07;3.47;;;;;;;;;;8309069;28;20076;-61
2022/09/30 08:52:01;;;;;;;7.80;2.67;;;;;;;;;;8316400;28;20124;-61
2022/09/30 08:56:02;;;;;;;5.78;2.25;;;;;;;;;;8317041;28;20772;-61
2022/09/30 09:00:07;;;;;;;10.52;2.30;;;;;;;;;;8312870;28;20021;-61
2022/09/30 09:04:07;;;;;;;4.40;2.63;;;;;;;;;;8284347;28;20045;-60
2022/09/30 09:08:07;;;;;;;4.40;2.50;;;;;;;;;;8285437;28;20018;-59
2022/09/30 09:12:27;;;;;;;4.95;2.67;;;;;;;;;;8286914;28;20454;-60
2022/09/30 09:16:36;;;;;;;6.65;2.40;;;;;;;;;;8283245;28;20037;-59
2022/09/30 09:20:45;;;;;;;3.63;2.40;;;;;;;;;;8285797;28;20424;-60
2022/09/30 09:24:47;;;;;;;4.40;2.50;;;;;;;;;;8285424;28;20079;-60
2022/09/30 09:28:55;;;;;;;5.80;2.97;;;;;;;;;;8281886;28;20131;-61
2022/09/30 09:32:57;;;;;;;4.63;2.65;;;;;;;;;;8284736;28;20553;-60
2022/09/30 09:36:57;;;;;;;4.13;2.20;;;;;;;;;;8285405;28;20928;-60
2022/09/30 09:41:16;;;;;;;4.15;2.67;;;;;;;;;;8282496;28;20483;-60
2022/09/30 09:45:16;;;;;;;4.85;3.15;;;;;;;;;;8291072;28;20017;-59
2022/09/30 09:49:27;;;;;;;4.60;3.38;;;;;;;;;;8285357;28;20045;-60
2022/09/30 09:53:41;;;;;;;3.38;3.08;;;;;;;;;;8287410;28;20022;-61
2022/09/30 09:57:41;;;;;;;5.60;2.83;;;;;;;;;;8290590;28;20029;-59
2022/09/30 10:01:41;;;;;;;7.05;3.72;;;;;;;;;;8289586;28;20037;-59
2022/09/30 10:05:41;;;;;;;3.63;2.70;;;;;;;;;;8289034;28;20603;-60
2022/09/30 10:09:42;;;;;;;5.37;3.50;;;;;;;;;;8290681;28;20061;-60
2022/09/30 10:13:43;;;;;;;3.47;2.70;;;;;;;;;;8284600;28;20269;-59
2022/09/30 10:17:48;;;;;;;5.10;3.03;;;;;;;;;;8289882;28;20040;-59
2022/09/30 10:21:49;;;;;;;4.47;2.38;;;;;;;;;;8286459;28;20441;-59
2022/09/30 10:26:00;;;;;;;5.45;2.67;;;;;;;;;;8291388;28;20090;-60
2022/09/30 10:30:00;;;;;;;3.53;2.40;;;;;;;;;;8289847;28;20140;-59
2022/09/30 10:34:18;;;;;;;4.90;2.20;;;;;;;;;;8286398;28;20119;-60
2022/09/30 10:38:19;;;;;;;4.80;2.08;;;;;;;;;;8289083;28;20683;-60
2022/09/30 10:42:22;;;;;;;13.55;7.05;;;;;;;;;;8288824;28;20538;-60
2022/09/30 10:46:24;;;;;;;3.97;2.20;;;;;;;;;;8288272;28;20033;-59
2022/09/30 10:50:26;;;;;;;4.78;2.22;;;;;;;;;;8286714;28;20401;-60
2022/09/30 10:54:32;;;;;;;4.25;2.10;;;;;;;;;;8281717;28;20020;-60
2022/09/30 10:58:35;;;;;;;7.80;2.50;;;;;;;;;;8288511;28;20026;-59
2022/09/30 11:02:36;;;;;;;4.10;2.17;;;;;;;;;;8286198;28;20159;-59
2022/09/30 11:06:38;;;;;;;2.08;1.80;;;;;;;;;;8289838;28;20026;-60
2022/09/30 11:10:44;;;;;;;3.83;1.92;;;;;;;;;;8297209;28;20086;-60
2022/09/30 11:14:50;;;;;;;4.85;1.98;;;;;;;;;;8294639;28;20381;-59
2022/09/30 11:18:58;;;;;;;4.00;1.73;;;;;;;;;;8291686;28;20140;-59
2022/09/30 11:23:19;;;;;;;4.45;2.60;;;;;;;;;;8291224;28;20022;-59
2022/09/30 11:27:22;;;;;;;8.13;2.30;;;;;;;;;;8289245;28;20033;-61
2022/09/30 11:31:35;;;;;;;5.60;2.88;;;;;;;;;;8288477;28;20402;-60
2022/09/30 11:35:40;;;;;;;3.83;2.13;;;;;;;;;;8291756;28;20099;-60
2022/09/30 11:39:47;;;;;;;2.97;2.30;;;;;;;;;;8293183;28;20083;-60
2022/09/30 11:44:05;;;;;;;6.60;2.97;;;;;;;;;;8292198;28;20027;-60
2022/09/30 11:48:06;;;;;;;3.53;2.20;;;;;;;;;;8291911;28;20041;-59
2022/09/30 11:52:12;;;;;;;3.00;1.83;;;;;;;;;;8292166;28;20033;-59
2022/09/30 11:56:34;;;;;;;2.92;1.50;;;;;;;;;;8291381;28;20021;-59
2022/09/30 12:00:36;;;;;;;2.05;1.50;;;;;;;;;;8289350;28;20061;-60
2022/09/30 12:04:39;;;;;;;2.97;1.70;;;;;;;;;;8291171;28;20488;-65
2022/09/30 12:08:49;;;;;;;3.40;1.40;;;;;;;;;;8291186;28;20037;-59
2022/09/30 12:12:52;;;;;;;2.08;1.40;;;;;;;;;;8293003;28;20036;-59
2022/09/30 12:16:55;;;;;;;2.00;1.20;;;;;;;;;;8287491;28;20030;-59
2022/09/30 12:20:57;;;;;;;3.92;1.33;;;;;;;;;;8288807;28;20026;-59
2022/09/30 12:24:58;;;;;;;2.20;1.38;;;;;;;;;;8289921;28;20045;-60
2022/09/30 12:33:31;;;;;;;2.40;1.27;;;;;;;;;;8290254;28;20037;-61
2022/09/30 12:37:57;;;;;;;5.05;1.10;;;;;;;;;;8292579;28;20025;-60
2022/09/30 12:41:57;;;;;;;1.88;1.00;;;;;;;;;;8289979;28;20017;-60
2022/09/30 12:46:03;;;;;;;2.77;1.13;;;;;;;;;;8288352;28;20041;-59
2022/09/30 12:50:06;;;;;;;4.47;1.45;;;;;;;;;;8287674;28;20617;-59
2022/09/30 12:54:09;;;;;;;1.83;1.20;;;;;;;;;;8287972;28;20040;-59
2022/09/30 12:58:30;;;;;;;2.20;1.30;;;;;;;;;;8288591;28;21722;-59
2022/09/30 13:02:34;;;;;;;2.25;1.00;;;;;;;;;;8287474;28;20037;-59
2022/09/30 13:06:46;;;;;;;2.15;1.10;;;;;;;;;;8285732;28;20041;-60
2022/09/30 13:10:52;;;;;;;2.80;1.10;;;;;;;;;;8288954;28;20133;-59
2022/09/30 13:15:12;;;;;;;1.98;1.00;;;;;;;;;;8288998;28;20017;-59
2022/09/30 13:19:19;;;;;;;1.73;0.90;;;;;;;;;;8308254;28;20080;-60
2022/09/30 13:23:34;;;;;;;1.83;0.80;;;;;;;;;;8311083;28;20049;-60
2022/09/30 13:27:37;;;;;;;1.52;0.80;;;;;;;;;;8310601;28;20163;-60
2022/09/30 13:31:44;;;;;;;1.00;0.90;;;;;;;;;;8297877;28;20038;-60
2022/09/30 13:35:49;;;;;;;1.10;0.70;;;;;;;;;;8293572;28;20248;-59
2022/09/30 13:39:53;;;;;;;1.85;0.90;;;;;;;;;;8296207;28;20037;-59
2022/09/30 13:44:02;;;;;;;4.47;0.80;;;;;;;;;;8295205;28;20026;-59
2022/09/30 13:48:02;;;;;;;1.40;0.90;;;;;;;;;;8292378;28;20052;-60
2022/09/30 13:52:05;;;;;;;2.15;0.88;;;;;;;;;;8291313;28;20327;-60
2022/09/30 13:56:08;;;;;;;1.35;1.00;;;;;;;;;;8293762;28;20018;-59
2022/09/30 14:00:20;;;;;;;1.05;0.80;;;;;;;;;;8288768;28;20032;-61
2022/09/30 14:04:35;;;;;;;2.25;1.05;;;;;;;;;;8290121;28;20285;-60
2022/09/30 14:08:56;;;;;;;0.77;0.77;;;;;;;;;;8289848;28;20036;-59
2022/09/30 14:13:19;;;;;;;2.65;0.95;;;;;;;;;;8295401;28;20814;-60
2022/09/30 14:17:28;;;;;;;1.07;0.90;;;;;;;;;;8291034;28;20115;-60
2022/09/30 14:21:37;;;;;;;0.70;0.70;;;;;;;;;;8290639;28;20025;-60
2022/09/30 14:25:41;;;;;;;0.80;0.70;;;;;;;;;;8293717;28;20147;-59
2022/09/30 14:29:41;;;;;;;;;;;;;;;;;;8296709;28;20021;-60
2022/09/30 14:33:44;;;;;;;0.60;0.60;;;;;;;;;;8292382;28;19962;-59
2022/09/30 14:37:47;;;;;;;1.30;0.77;;;;;;;;;;8291406;28;20197;-60
2022/09/30 14:41:50;;;;;;;1.48;0.80;;;;;;;;;;8293965;28;20029;-59
2022/09/30 14:45:53;;;;;;;0.93;0.60;;;;;;;;;;8293759;28;20034;-59
2022/09/30 14:49:54;;;;;;;0.70;0.70;;;;;;;;;;8297841;28;20895;-59
2022/09/30 14:54:01;;;;;;;0.70;0.60;;;;;;;;;;8290596;28;20354;-60
2022/09/30 14:58:20;;;;;;;1.13;0.70;;;;;;;;;;8295238;28;20252;-59
2022/09/30 15:02:20;;;;;;;0.70;0.70;;;;;;;;;;8295768;28;20060;-59
2022/09/30 15:06:26;;;;;;;2.05;0.60;;;;;;;;;;8292222;28;20029;-60
2022/09/30 15:10:28;;;;;;;0.90;0.70;;;;;;;;;;8295470;28;20052;-59
2022/09/30 15:14:28;;;;;;;0.60;0.60;;;;;;;;;;8295933;28;20508;-60
2022/09/30 15:18:31;;;;;;;2.17;0.60;;;;;;;;;;8291897;28;20065;-60
2022/09/30 15:22:31;;;;;;;2.28;0.80;;;;;;;;;;8291554;28;20029;-60
2022/09/30 15:26:33;;;;;;;2.88;0.70;;;;;;;;;;8295526;28;20183;-60
2022/09/30 15:30:33;;;;;;;0.82;0.70;;;;;;;;;;8287165;28;20062;-59
2022/09/30 15:34:33;;;;;;;0.60;0.60;;;;;;;;;;8291923;28;20022;-60
2022/09/30 15:38:35;;;;;;;0.70;0.67;;;;;;;;;;8286725;28;20044;-61
2022/09/30 15:42:37;;;;;;;0.98;0.75;;;;;;;;;;8289635;28;20748;-60
2022/09/30 15:46:39;;;;;;;7.30;3.22;;;;;;;;;;8287186;28;20199;-60
2022/09/30 15:50:40;;;;;;;5.05;3.20;;;;;;;;;;8285512;28;20026;-59
2022/09/30 15:54:41;;;;;;;6.07;4.20;;;;;;;;;;8288424;28;20025;-60
2022/09/30 15:58:53;;;;;;;3.83;1.60;;;;;;;;;;8289057;28;20308;-60
2022/09/30 16:02:53;;;;;;;2.85;1.60;;;;;;;;;;8290675;28;20040;-59
2022/09/30 16:07:06;;;;;;;1.30;1.20;;;;;;;;;;8288779;28;20498;-60
2022/09/30 16:11:07;;;;;;;0.77;0.77;;;;;;;;;;8288301;28;20740;-60
2022/09/30 16:15:13;;;;;;;1.73;1.00;;;;;;;;;;8283718;28;20079;-60
2022/09/30 16:19:15;;;;;;;1.02;0.82;;;;;;;;;;8289120;28;20793;-60
2022/09/30 16:23:27;;;;;;;0.70;0.70;;;;;;;;;;8282893;28;20033;-59
2022/09/30 16:27:30;;;;;;;1.35;0.85;;;;;;;;;;8289338;28;20149;-60
2022/09/30 16:31:31;;;;;;;0.75;0.70;;;;;;;;;;8290066;28;20029;-60
2022/09/30 16:35:32;;;;;;;0.70;0.70;;;;;;;;;;8305221;28;20021;-59
2022/09/30 16:39:32;;;;;;;0.82;0.80;;;;;;;;;;8287174;28;20021;-59
2022/09/30 16:43:33;;;;;;;0.93;0.80;;;;;;;;;;8288983;28;20033;-61
2022/09/30 16:47:33;;;;;;;0.80;0.80;;;;;;;;;;8286803;28;20037;-60
2022/09/30 16:51:33;;;;;;;1.08;0.88;;;;;;;;;;8295476;28;20017;-60
2022/09/30 16:55:33;;;;;;;1.30;0.80;;;;;;;;;;8298120;28;20025;-59
2022/09/30 16:59:34;;;;;;;1.20;1.10;;;;;;;;;;8297743;28;20056;-59
2022/09/30 17:03:34;;;;;;;1.65;0.80;;;;;;;;;;8293520;28;20104;-61
2022/09/30 17:07:34;;;;;;;1.17;0.95;;;;;;;;;;8298390;28;20021;-60
2022/09/30 17:11:36;;;;;;;1.67;0.90;;;;;;;;;;8297428;28;20541;-61
2022/09/30 17:15:36;;;;;;;2.20;1.02;;;;;;;;;;8299551;28;20038;-60
2022/09/30 17:19:37;;;;;;;3.00;0.90;;;;;;;;;;8298336;28;20139;-60
2022/09/30 17:23:38;;;;;;;0.90;0.90;;;;;;;;;;8298374;28;20036;-61
2022/09/30 17:27:38;;;;;;;1.15;0.80;;;;;;;;;;8298750;28;20022;-60
2022/09/30 17:31:38;;;;;;;2.88;0.82;;;;;;;;;;8297737;28;20036;-60
2022/09/30 17:35:39;;;;;;;0.90;0.90;;;;;;;;;;8297421;28;20025;-60
2022/09/30 17:39:39;;;;;;;1.48;0.85;;;;;;;;;;8298892;28;20022;-60
2022/09/30 17:43:40;;;;;;;1.73;0.80;;;;;;;;;;8299508;28;20108;-61
2022/09/30 17:47:41;;;;;;;1.30;0.98;;;;;;;;;;8293250;28;20037;-60
2022/09/30 17:51:41;;;;;;;2.67;1.15;;;;;;;;;;8293907;28;20746;-60
2022/09/30 17:55:42;;;;;;;1.08;1.08;;;;;;;;;;8292530;28;20033;-60
2022/09/30 17:59:44;;;;;;;1.40;1.05;;;;;;;;;;8295965;28;20021;-60
2022/09/30 18:03:44;;;;;;;1.50;1.40;;;;;;;;;;8291910;28;20041;-60
2022/09/30 18:07:45;;;;;;;2.83;1.23;;;;;;;;;;8287991;28;20021;-61
2022/09/30 18:11:45;;;;;;;1.02;0.77;;;;;;;;;;8292745;28;20482;-60
2022/09/30 18:15:46;;;;;;;2.08;1.10;;;;;;;;;;8288451;28;20406;-59
2022/09/30 18:19:46;;;;;;;1.35;1.10;;;;;;;;;;8292233;28;20108;-59
2022/09/30 18:23:48;;;;;;;2.83;1.77;;;;;;;;;;8291963;28;20029;-60
2022/09/30 18:27:50;;;;;;;3.13;1.95;;;;;;;;;;8290538;28;20206;-60
2022/09/30 18:31:51;;;;;;;1.35;1.00;;;;;;;;;;8288128;28;20034;-60
2022/09/30 18:35:52;;;;;;;2.70;2.40;;;;;;;;;;8286903;28;20401;-60
2022/09/30 18:39:52;;;;;;;2.83;2.00;;;;;;;;;;8286553;28;20034;-60
2022/09/30 18:43:58;;;;;;;2.80;2.13;;;;;;;;;;8287313;28;21183;-60
2022/09/30 18:47:58;;;;;;;1.85;1.17;;;;;;;;;;8285510;28;20747;-59
2022/09/30 18:51:59;;;;;;;1.02;1.00;;;;;;;;;;8285769;28;20036;-60
2022/09/30 18:56:00;;;;;;;1.42;1.08;;;;;;;;;;8284088;28;20025;-59
2022/09/30 19:00:00;;;;;;;1.38;0.95;;;;;;;;;;8283105;28;20030;-60
2022/09/30 19:04:01;;;;;;;1.80;1.20;;;;;;;;;;8284341;28;20037;-59
2022/09/30 19:08:02;;;;;;;1.35;1.02;;;;;;;;;;8283778;28;20020;-59
2022/09/30 19:12:03;;;;;;;1.63;1.10;;;;;;;;;;8286166;28;20021;-60
2022/09/30 19:16:03;;;;;;;1.08;1.00;;;;;;;;;;8285761;28;20087;-60
2022/09/30 19:20:04;;;;;;;2.03;1.20;;;;;;;;;;8285673;28;20445;-59
2022/09/30 19:24:06;;;;;;;1.25;1.15;;;;;;;;;;8286149;28;20061;-60
2022/09/30 19:28:06;;;;;;;1.73;1.40;;;;;;;;;;8283297;28;20073;-59
2022/09/30 19:32:08;;;;;;;3.75;1.50;;;;;;;;;;8283483;28;20025;-59
2022/09/30 19:36:09;;;;;;;1.67;1.30;;;;;;;;;;8282110;28;20025;-61
2022/09/30 19:40:09;;;;;;;2.22;1.52;;;;;;;;;;8280797;28;20530;-60
2022/09/30 19:44:10;;;;;;;3.25;1.25;;;;;;;;;;8285995;28;20025;-60
2022/09/30 19:48:10;;;;;;;1.40;1.10;;;;;;;;;;8279507;28;20176;-60
2022/09/30 19:52:11;;;;;;;1.92;1.15;;;;;;;;;;8281953;28;20029;-59
2022/09/30 19:56:13;;;;;;;7.78;1.65;;;;;;;;;;8282610;28;20375;-59
2022/09/30 20:00:13;;;;;;;1.45;1.20;;;;;;;;;;8283472;28;20501;-60
2022/09/30 20:04:17;;;;;;;1.35;1.15;;;;;;;;;;8282211;28;20076;-60
2022/09/30 20:08:17;;;;;;;;;;;;;;;;;;8284823;28;20290;-60
2022/09/30 20:12:18;;;;;;;3.70;1.70;;;;;;;;;;8280652;28;21071;-59
2022/09/30 20:16:18;;;;;;;2.35;1.30;;;;;;;;;;8281852;28;20037;-59
2022/09/30 20:20:33;;;;;;;2.10;1.50;;;;;;;;;;8280081;28;20060;-60
2022/09/30 20:24:33;;;;;;;4.38;1.80;;;;;;;;;;8285130;28;20030;-59
2022/09/30 20:28:34;;;;;;;2.08;1.50;;;;;;;;;;8280873;28;20021;-59
2022/09/30 20:32:34;;;;;;;2.38;1.60;;;;;;;;;;8281806;28;20614;-60
2022/09/30 20:36:34;;;;;;;1.52;1.42;;;;;;;;;;8282398;28;20493;-59
2022/09/30 20:40:34;;;;;;;2.53;1.80;;;;;;;;;;8282801;28;20036;-60
2022/09/30 20:44:34;;;;;;;1.73;1.10;;;;;;;;;;8283573;28;20293;-60
2022/09/30 20:48:36;;;;;;;4.32;1.33;;;;;;;;;;8282320;28;20047;-60
2022/09/30 20:52:36;;;;;;;3.80;2.40;;;;;;;;;;8283553;28;20132;-59
2022/09/30 20:56:36;;;;;;;3.30;1.58;;;;;;;;;;8280667;28;20045;-60
2022/09/30 21:00:38;;;;;;;3.33;1.58;;;;;;;;;;8284866;28;20195;-60
2022/09/30 21:04:38;;;;;;;2.10;1.48;;;;;;;;;;8282792;28;20232;-60
2022/09/30 21:08:41;;;;;;;2.20;1.60;;;;;;;;;;8279707;28;20163;-60
2022/09/30 21:12:42;;;;;;;2.92;1.60;;;;;;;;;;8278161;28;20283;-60
2022/09/30 21:16:42;;;;;;;2.53;1.40;;;;;;;;;;8274200;28;20037;-59
2022/09/30 21:20:42;;;;;;;1.83;1.58;;;;;;;;;;8280898;28;20934;-59
2022/09/30 21:24:42;;;;;;;2.15;1.20;;;;;;;;;;8282946;28;20836;-60
2022/09/30 21:28:44;;;;;;;2.13;1.17;;;;;;;;;;8283809;28;20029;-60
2022/09/30 21:32:44;;;;;;;1.10;1.00;;;;;;;;;;8276798;28;20053;-60
2022/09/30 21:36:45;;;;;;;2.17;1.42;;;;;;;;;;8286065;28;20026;-60
2022/09/30 21:40:46;;;;;;;1.63;1.00;;;;;;;;;;8289747;28;20419;-59
2022/09/30 21:44:46;;;;;;;1.92;1.17;;;;;;;;;;8285488;28;20732;-59
2022/09/30 21:48:46;;;;;;;2.67;1.30;;;;;;;;;;8287849;28;20043;-59
2022/09/30 21:52:48;;;;;;;0.95;0.93;;;;;;;;;;8283342;28;20381;-60
2022/09/30 21:56:48;;;;;;;3.03;1.25;;;;;;;;;;8285878;28;20029;-60
2022/09/30 22:00:49;;;;;;;1.50;1.30;;;;;;;;;;8284865;28;20138;-60
2022/09/30 22:04:49;;;;;;;2.78;1.90;;;;;;;;;;8287147;28;20021;-60
2022/09/30 22:08:49;;;;;;;2.40;1.58;;;;;;;;;;8285883;28;20698;-59
2022/09/30 22:12:49;;;;;;;4.10;1.88;;;;;;;;;;8286354;28;20677;-62
2022/09/30 22:16:54;;;;;;;2.67;2.10;;;;;;;;;;8287206;28;20150;-60
2022/09/30 22:20:54;;;;;;;3.72;2.10;;;;;;;;;;8284846;28;20171;-60
2022/09/30 22:24:54;;;;;;;2.95;2.10;;;;;;;;;;8283581;28;20573;-60
2022/09/30 22:28:59;;;;;;;5.00;2.20;;;;;;;;;;8289295;28;20142;-60
2022/09/30 22:41:37;;;;;;;2.13;1.85;;;;;;;;;;8286192;28;20032;-60
2022/09/30 22:45:38;;;;;;;4.38;1.80;;;;;;;;;;8284519;28;20482;-60
2022/09/30 22:49:38;;;;;;;1.60;1.50;;;;;;;;;;8284171;28;20488;-59
2022/09/30 22:53:38;;;;;;;4.13;1.70;;;;;;;;;;8282985;28;20308;-60
2022/09/30 22:57:38;;;;;;;2.42;1.35;;;;;;;;;;8283585;28;20268;-60
2022/09/30 23:01:39;;;;;;;2.05;1.33;;;;;;;;;;8286411;28;20422;-60
2022/09/30 23:05:39;;;;;;;2.55;1.30;;;;;;;;;;8283733;28;20168;-60
2022/09/30 23:09:39;;;;;;;2.70;1.48;;;;;;;;;;8283884;28;20025;-60
2022/09/30 23:13:40;;;;;;;3.03;1.35;;;;;;;;;;8282802;28;20832;-60
2022/09/30 23:17:40;;;;;;;3.78;1.20;;;;;;;;;;8282980;28;20038;-59
2022/09/30 23:21:40;;;;;;;1.10;1.00;;;;;;;;;;8286959;28;20021;-61
2022/09/30 23:25:40;;;;;;;4.90;1.35;;;;;;;;;;8282693;28;20084;-59
2022/09/30 23:29:41;;;;;;;2.45;1.02;;;;;;;;;;8282940;28;20030;-59
2022/09/30 23:33:48;;;;;;;3.35;1.10;;;;;;;;;;8284617;28;20544;-60
2022/09/30 23:37:49;;;;;;;1.50;1.20;;;;;;;;;;8286622;28;20592;-59
2022/09/30 23:41:49;;;;;;;1.48;1.20;;;;;;;;;;8286669;28;20021;-60
2022/09/30 23:45:49;;;;;;;1.58;1.40;;;;;;;;;;8284172;28;20033;-60
2022/09/30 23:49:50;;;;;;;1.73;1.35;;;;;;;;;;8287324;28;20410;-60
2022/09/30 23:53:50;;;;;;;2.67;1.30;;;;;;;;;;8285151;28;20025;-60
2022/09/30 23:57:50;;;;;;;3.23;1.43;;;;;;;;;;8285193;28;20060;-60
